createdAt,value
2019-02-05T00:00:33.247Z,4.13
2019-02-05T00:02:38.502Z,4.77
2019-02-05T00:04:44.330Z,4.60
2019-02-05T00:06:49.496Z,4.90
2019-02-05T00:08:54.526Z,4.73
2019-02-05T00:10:59.597Z,4.80
2019-02-05T00:13:05.473Z,4.60
2019-02-05T00:15:10.894Z,4.87
2019-02-05T00:17:16.047Z,4.93
2019-02-05T00:19:21.098Z,4.27
2019-02-05T00:21:26.357Z,4.73
2019-02-05T00:23:31.367Z,5.07
2019-02-05T00:25:36.567Z,4.73
2019-02-05T00:27:41.758Z,5.17
2019-02-05T00:29:46.722Z,4.37
2019-02-05T00:31:51.720Z,4.73
2019-02-05T00:33:56.774Z,5.17
2019-02-05T00:36:01.756Z,4.97
2019-02-05T00:38:07.169Z,5.03
2019-02-05T00:40:12.676Z,4.73
2019-02-05T00:42:17.783Z,4.97
2019-02-05T00:44:22.792Z,4.70
2019-02-05T00:46:27.884Z,5.37
2019-02-05T00:48:32.973Z,4.60
2019-02-05T00:50:39.049Z,4.27
2019-02-05T00:52:44.226Z,5.00
2019-02-05T00:54:49.158Z,4.80
2019-02-05T00:56:54.283Z,4.73
2019-02-05T00:58:59.363Z,5.07
2019-02-05T01:01:05.331Z,4.40
2019-02-05T01:03:10.771Z,4.30
2019-02-05T01:05:16.616Z,4.53
2019-02-05T01:07:21.910Z,4.17
2019-02-05T01:09:27.057Z,4.37
2019-02-05T01:11:32.285Z,4.23
2019-02-05T01:13:39.190Z,4.33
2019-02-05T01:15:44.329Z,4.43
2019-02-05T01:17:49.473Z,4.30
2019-02-05T01:19:54.652Z,4.27
2019-02-05T01:21:59.715Z,4.20
2019-02-05T01:24:05.284Z,4.40
2019-02-05T01:26:10.376Z,4.40
2019-02-05T01:28:15.497Z,4.90
2019-02-05T01:30:23.941Z,4.33
2019-02-05T01:32:28.876Z,5.10
2019-02-05T01:34:34.006Z,4.60
2019-02-05T01:36:39.004Z,4.90
2019-02-05T01:38:44.085Z,5.60
2019-02-05T01:40:49.162Z,4.67
2019-02-05T01:42:54.617Z,4.97
2019-02-05T01:44:59.684Z,4.67
2019-02-05T01:47:04.901Z,4.23
2019-02-05T01:49:10.372Z,4.47
2019-02-05T01:51:15.366Z,4.73
2019-02-05T01:53:20.503Z,4.30
2019-02-05T01:55:25.944Z,4.97
2019-02-05T01:57:31.048Z,4.47
2019-02-05T01:59:36.425Z,4.43
2019-02-05T02:01:41.491Z,4.43
2019-02-05T02:03:46.579Z,4.10
2019-02-05T02:05:51.714Z,4.83
2019-02-05T02:07:56.811Z,4.67
2019-02-05T02:10:02.033Z,4.30
2019-02-05T02:12:07.240Z,3.97
2019-02-05T02:14:12.354Z,4.63
2019-02-05T02:16:17.534Z,4.17
2019-02-05T02:18:22.547Z,4.57
2019-02-05T02:20:27.997Z,4.50
2019-02-05T02:22:33.467Z,4.10
2019-02-05T02:24:38.635Z,3.97
2019-02-05T02:26:51.798Z,4.67
2019-02-05T02:28:50.587Z,4.10
2019-02-05T02:30:55.693Z,4.03
2019-02-05T02:33:00.869Z,4.50
2019-02-05T02:35:06.377Z,4.30
2019-02-05T02:37:11.381Z,4.90
2019-02-05T02:39:16.439Z,4.10
2019-02-05T02:41:21.444Z,4.60
2019-02-05T02:43:26.550Z,4.50
2019-02-05T02:45:31.964Z,4.60
2019-02-05T02:47:37.129Z,4.70
2019-02-05T02:49:42.148Z,3.97
2019-02-05T02:51:47.281Z,4.30
2019-02-05T02:53:52.192Z,4.67
2019-02-05T02:55:57.436Z,4.13
2019-02-05T02:58:02.515Z,3.97
2019-02-05T03:00:11.961Z,4.47
2019-02-05T03:02:17.087Z,3.67
2019-02-05T03:04:22.034Z,4.07
2019-02-05T03:06:27.124Z,4.20
2019-02-05T03:08:32.754Z,4.07
2019-02-05T03:10:38.057Z,4.57
2019-02-05T03:12:43.238Z,4.30
2019-02-05T03:14:48.346Z,4.17
2019-02-05T03:16:53.415Z,3.63
2019-02-05T03:18:58.778Z,4.07
2019-02-05T03:21:03.930Z,4.37
2019-02-05T03:23:09.053Z,4.23
2019-02-05T03:25:16.237Z,3.83
2019-02-05T03:27:21.301Z,3.83
2019-02-05T03:29:26.749Z,4.60
2019-02-05T03:31:31.823Z,3.60
2019-02-05T03:33:36.850Z,4.40
2019-02-05T03:35:41.957Z,4.13
2019-02-05T03:37:47.294Z,4.47
2019-02-05T03:39:52.512Z,4.17
2019-02-05T03:41:57.656Z,4.43
2019-02-05T03:44:02.809Z,3.93
2019-02-05T03:46:20.536Z,4.03
2019-02-05T03:48:25.821Z,4.77
2019-02-05T03:50:34.235Z,4.50
2019-02-05T03:52:51.611Z,4.00
2019-02-05T03:55:54.097Z,3.73
2019-02-05T03:58:36.354Z,3.80
2019-02-05T04:01:47.377Z,3.57
2019-02-05T04:04:50.446Z,3.93
2019-02-05T04:07:39.201Z,3.60
2019-02-05T04:10:58.701Z,3.60
2019-02-05T04:13:40.901Z,3.50
2019-02-05T04:16:42.489Z,4.17
2019-02-05T04:19:40.217Z,3.90
2019-02-05T04:22:29.207Z,4.13
2019-02-05T04:25:14.186Z,3.97
2019-02-05T04:28:17.677Z,4.00
2019-02-05T04:31:09.171Z,4.63
2019-02-05T04:34:17.679Z,3.87
2019-02-05T04:36:57.635Z,4.40
2019-02-05T04:39:43.786Z,4.17
2019-02-05T04:42:48.102Z,4.10
2019-02-05T04:45:53.395Z,4.07
2019-02-05T04:48:47.475Z,3.90
2019-02-05T04:51:35.135Z,4.50
2019-02-05T04:54:18.154Z,4.17
2019-02-05T04:57:06.629Z,3.70
2019-02-05T04:59:52.117Z,3.60
2019-02-05T05:02:38.833Z,3.50
2019-02-05T05:05:38.843Z,4.40
2019-02-05T05:08:52.266Z,3.57
2019-02-05T05:10:57.361Z,4.00
2019-02-05T05:13:02.438Z,4.33
2019-02-05T05:15:10.578Z,4.33
2019-02-05T05:17:15.754Z,4.10
2019-02-05T05:19:20.882Z,4.17
2019-02-05T05:21:26.429Z,4.30
2019-02-05T05:23:32.567Z,4.20
2019-02-05T05:25:40.524Z,4.13
2019-02-05T05:27:45.878Z,3.87
2019-02-05T05:29:52.046Z,3.37
2019-02-05T05:31:57.749Z,4.10
2019-02-05T05:34:02.937Z,3.80
2019-02-05T05:36:08.072Z,3.60
2019-02-05T05:38:13.288Z,4.20
2019-02-05T05:40:18.421Z,4.00
2019-02-05T05:42:23.646Z,5.00
2019-02-05T05:44:28.638Z,4.27
2019-02-05T05:46:33.775Z,5.17
2019-02-05T05:48:38.880Z,5.67
2019-02-05T05:50:43.800Z,5.23
2019-02-05T05:52:48.948Z,5.07
2019-02-05T05:54:54.083Z,5.50
2019-02-05T05:56:59.001Z,5.77
2019-02-05T05:59:04.282Z,4.73
2019-02-05T06:01:09.304Z,5.23
2019-02-05T06:03:14.305Z,5.50
2019-02-05T06:05:20.749Z,5.50
2019-02-05T06:07:26.096Z,6.00
2019-02-05T06:09:31.138Z,5.10
2019-02-05T06:11:36.263Z,4.37
2019-02-05T06:13:41.336Z,4.37
2019-02-05T06:15:46.493Z,5.57
2019-02-05T06:17:52.300Z,5.53
2019-02-05T06:19:57.417Z,4.60
2019-02-05T06:22:02.423Z,4.77
2019-02-05T06:24:07.684Z,5.50
2019-02-05T06:26:12.885Z,6.33
2019-02-05T06:28:18.205Z,5.70
2019-02-05T06:30:23.361Z,6.30
2019-02-05T06:32:28.503Z,5.90
2019-02-05T06:34:33.781Z,6.57
2019-02-05T06:36:38.854Z,4.93
2019-02-05T06:38:44.705Z,4.30
2019-02-05T06:40:50.049Z,5.67
2019-02-05T06:42:55.040Z,5.83
2019-02-05T06:45:00.319Z,5.30
2019-02-05T06:47:05.574Z,6.80
2019-02-05T06:49:10.519Z,6.57
2019-02-05T06:51:15.547Z,5.90
2019-02-05T06:53:20.615Z,5.10
2019-02-05T06:55:25.610Z,5.87
2019-02-05T06:57:30.684Z,4.80
2019-02-05T06:59:35.824Z,5.30
2019-02-05T07:01:41.336Z,5.87
2019-02-05T07:03:46.518Z,5.93
2019-02-05T07:05:51.587Z,5.40
2019-02-05T07:07:56.664Z,6.07
2019-02-05T07:10:01.822Z,6.30
2019-02-05T07:12:07.347Z,7.23
2019-02-05T07:14:12.586Z,7.40
2019-02-05T07:16:17.880Z,6.63
2019-02-05T07:18:22.926Z,7.10
2019-02-05T07:20:27.923Z,6.57
2019-02-05T07:22:33.394Z,6.60
2019-02-05T07:24:38.483Z,5.80
2019-02-05T07:26:43.544Z,7.23
2019-02-05T07:28:58.065Z,5.70
2019-02-05T07:30:55.383Z,5.93
2019-02-05T07:33:00.517Z,6.03
2019-02-05T07:35:06.594Z,6.10
2019-02-05T07:37:11.742Z,6.83
2019-02-05T07:39:16.890Z,7.47
2019-02-05T07:41:21.954Z,7.27
2019-02-05T07:43:27.284Z,8.23
2019-02-05T07:45:32.440Z,8.07
2019-02-05T07:47:37.630Z,7.87
2019-02-05T07:49:42.805Z,7.77
2019-02-05T07:51:48.005Z,7.40
2019-02-05T07:53:53.371Z,7.70
2019-02-05T07:55:58.471Z,7.03
2019-02-05T07:58:03.527Z,7.47
2019-02-05T08:00:18.343Z,8.17
2019-02-05T08:02:23.578Z,7.43
2019-02-05T08:04:28.644Z,8.37
2019-02-05T08:06:33.798Z,8.90
2019-02-05T08:08:38.979Z,9.17
2019-02-05T08:10:44.166Z,8.20
2019-02-05T08:12:49.468Z,9.37
2019-02-05T08:14:54.933Z,9.63
2019-02-05T08:17:00.171Z,8.20
2019-02-05T08:19:06.027Z,8.70
2019-02-05T08:21:11.248Z,8.97
2019-02-05T08:23:16.313Z,9.67
2019-02-05T08:25:21.826Z,9.80
2019-02-05T08:27:26.861Z,9.17
2019-02-05T08:29:31.944Z,9.03
2019-02-05T08:31:37.225Z,9.60
2019-02-05T08:33:42.172Z,9.63
2019-02-05T08:35:47.631Z,10.10
2019-02-05T08:37:52.763Z,9.77
2019-02-05T08:39:57.901Z,10.80
2019-02-05T08:42:02.913Z,9.73
2019-02-05T08:44:08.192Z,10.17
2019-02-05T08:46:13.313Z,9.63
2019-02-05T08:48:18.466Z,9.63
2019-02-05T08:50:27.457Z,10.10
2019-02-05T08:52:32.805Z,10.43
2019-02-05T08:54:37.753Z,9.53
2019-02-05T08:56:42.832Z,9.40
2019-02-05T08:58:47.938Z,9.30
2019-02-05T09:00:53.006Z,9.40
2019-02-05T09:02:58.245Z,9.63
2019-02-05T09:05:03.454Z,8.73
2019-02-05T09:07:08.647Z,10.10
2019-02-05T09:09:13.792Z,10.30
2019-02-05T09:11:19.062Z,10.00
2019-02-05T09:13:24.081Z,9.27
2019-02-05T09:15:29.938Z,9.53
2019-02-05T09:17:34.952Z,9.80
2019-02-05T09:19:40.209Z,9.13
2019-02-05T09:21:45.279Z,9.60
2019-02-05T09:23:50.410Z,8.90
2019-02-05T09:25:55.651Z,9.13
2019-02-05T09:28:00.844Z,9.43
2019-02-05T09:30:10.754Z,9.10
2019-02-05T09:32:17.226Z,9.57
2019-02-05T09:34:22.402Z,9.10
2019-02-05T09:36:27.554Z,9.40
2019-02-05T09:38:33.848Z,8.80
2019-02-05T09:40:38.988Z,9.07
2019-02-05T09:42:44.147Z,9.17
2019-02-05T09:44:49.667Z,9.63
2019-02-05T09:46:54.799Z,8.80
2019-02-05T09:48:59.818Z,9.70
2019-02-05T09:51:05.203Z,9.10
2019-02-05T09:53:10.516Z,9.90
2019-02-05T09:55:16.424Z,11.47
2019-02-05T09:57:21.513Z,9.97
2019-02-05T09:59:26.499Z,9.03
2019-02-05T10:01:31.642Z,8.90
2019-02-05T10:03:36.898Z,8.80
2019-02-05T10:05:42.266Z,10.90
2019-02-05T10:07:47.726Z,9.13
2019-02-05T10:09:52.852Z,9.27
2019-02-05T10:11:57.954Z,9.33
2019-02-05T10:14:03.030Z,11.93
2019-02-05T10:16:08.527Z,12.63
2019-02-05T10:18:14.417Z,30.67
2019-02-05T10:20:19.803Z,15.40
2019-02-05T10:22:25.169Z,10.13
2019-02-05T10:24:30.702Z,10.23
2019-02-05T10:26:35.850Z,9.10
2019-02-05T10:28:40.823Z,43.43
2019-02-05T10:30:46.989Z,34.67
2019-02-05T10:32:52.152Z,13.87
2019-02-05T10:34:57.465Z,12.70
2019-02-05T10:37:02.736Z,9.30
2019-02-05T10:39:12.364Z,12.53
2019-02-05T10:41:17.454Z,9.63
2019-02-05T10:43:22.688Z,9.63
2019-02-05T10:45:28.334Z,17.30
2019-02-05T10:47:33.538Z,9.93
2019-02-05T10:49:38.823Z,8.20
2019-02-05T10:51:43.996Z,8.57
2019-02-05T10:53:49.065Z,8.90
2019-02-05T10:55:54.263Z,7.93
2019-02-05T10:57:59.804Z,8.87
2019-02-05T11:00:09.308Z,8.27
2019-02-05T11:02:14.606Z,12.13
2019-02-05T11:04:19.706Z,16.90
2019-02-05T11:06:24.910Z,8.97
2019-02-05T11:08:30.305Z,7.80
2019-02-05T11:10:35.558Z,8.87
2019-02-05T11:12:40.847Z,8.67
2019-02-05T11:14:47.274Z,8.53
2019-02-05T11:16:52.408Z,9.70
2019-02-05T11:18:57.794Z,12.13
2019-02-05T11:21:04.379Z,8.63
2019-02-05T11:23:09.753Z,9.13
2019-02-05T11:25:15.428Z,18.63
2019-02-05T11:27:20.655Z,11.50
2019-02-05T11:29:25.872Z,13.80
2019-02-05T11:31:30.955Z,10.87
2019-02-05T11:33:36.149Z,9.93
2019-02-05T11:35:41.377Z,10.47
2019-02-05T11:37:46.575Z,9.33
2019-02-05T11:39:51.640Z,11.60
2019-02-05T11:41:56.720Z,10.50
2019-02-05T11:44:01.731Z,10.73
2019-02-05T11:46:06.985Z,9.43
2019-02-05T11:48:18.125Z,9.60
2019-02-05T11:50:24.175Z,8.47
2019-02-05T11:52:29.755Z,9.03
2019-02-05T11:54:34.938Z,9.40
2019-02-05T11:56:40.087Z,9.13
2019-02-05T11:58:45.166Z,9.47
2019-02-05T12:01:09.279Z,9.50
2019-02-05T12:03:14.867Z,8.53
2019-02-05T12:05:19.962Z,8.90
2019-02-05T12:07:25.035Z,7.70
2019-02-05T12:09:30.203Z,8.37
2019-02-05T12:11:35.212Z,8.63
2019-02-05T12:13:40.265Z,8.90
2019-02-05T12:15:45.428Z,8.03
2019-02-05T12:17:50.529Z,7.97
2019-02-05T12:19:55.844Z,8.50
2019-02-05T12:22:00.958Z,7.47
2019-02-05T12:24:06.392Z,8.10
2019-02-05T12:26:11.476Z,7.37
2019-02-05T12:28:16.716Z,8.50
2019-02-05T12:30:26.207Z,7.87
2019-02-05T12:32:31.339Z,8.43
2019-02-05T12:34:36.328Z,8.87
2019-02-05T12:36:41.665Z,8.57
2019-02-05T12:38:46.945Z,7.87
2019-02-05T12:40:52.142Z,7.73
2019-02-05T12:42:57.755Z,7.63
2019-02-05T12:45:02.899Z,8.57
2019-02-05T12:47:08.038Z,8.33
2019-02-05T12:49:14.837Z,8.03
2019-02-05T12:51:20.132Z,7.33
2019-02-05T12:53:25.358Z,7.93
2019-02-05T12:55:31.000Z,7.37
2019-02-05T12:57:36.079Z,7.90
2019-02-05T12:59:41.187Z,8.03
2019-02-05T13:01:46.405Z,7.63
2019-02-05T13:03:51.544Z,7.90
2019-02-05T13:05:56.757Z,8.70
2019-02-05T13:08:01.935Z,7.93
2019-02-05T13:10:11.436Z,8.30
2019-02-05T13:12:16.703Z,8.43
2019-02-05T13:14:21.723Z,8.33
2019-02-05T13:16:26.676Z,8.77
2019-02-05T13:18:31.721Z,7.57
2019-02-05T13:20:37.203Z,7.80
2019-02-05T13:22:42.353Z,8.20
2019-02-05T13:24:47.494Z,8.10
2019-02-05T13:26:52.725Z,9.20
2019-02-05T13:28:57.901Z,8.63
2019-02-05T13:31:08.037Z,9.50
2019-02-05T13:33:10.920Z,8.70
2019-02-05T13:35:16.742Z,9.27
2019-02-05T13:37:21.812Z,9.23
2019-02-05T13:39:26.859Z,8.63
2019-02-05T13:41:31.941Z,10.83
2019-02-05T13:43:37.123Z,10.37
2019-02-05T13:45:43.712Z,10.43
2019-02-05T13:47:49.216Z,10.87
2019-02-05T13:49:54.393Z,10.57
2019-02-05T13:51:59.610Z,10.37
2019-02-05T13:54:05.528Z,10.57
2019-02-05T13:56:10.858Z,9.53
2019-02-05T13:58:16.491Z,9.40
2019-02-05T14:00:34.732Z,10.33
2019-02-05T14:02:39.823Z,10.10
2019-02-05T14:04:44.859Z,9.37
2019-02-05T14:06:50.590Z,9.30
2019-02-05T14:08:55.805Z,10.93
2019-02-05T14:11:01.092Z,9.50
2019-02-05T14:13:07.464Z,9.67
2019-02-05T14:15:13.580Z,10.00
2019-02-05T14:17:18.849Z,10.07
2019-02-05T14:19:23.930Z,10.07
2019-02-05T14:21:29.024Z,10.60
2019-02-05T14:23:34.017Z,9.90
2019-02-05T14:25:39.233Z,10.40
2019-02-05T14:27:44.266Z,10.17
2019-02-05T14:29:49.416Z,10.17
2019-02-05T14:31:54.612Z,9.67
2019-02-05T14:33:59.758Z,8.67
2019-02-05T14:36:05.566Z,9.40
2019-02-05T14:38:11.293Z,8.97
2019-02-05T14:40:18.614Z,10.00
2019-02-05T14:42:23.755Z,10.20
2019-02-05T14:44:28.758Z,9.63
2019-02-05T14:46:34.011Z,10.77
2019-02-05T14:48:39.050Z,9.00
2019-02-05T14:50:45.447Z,9.57
2019-02-05T14:52:50.910Z,9.97
2019-02-05T14:54:55.968Z,9.33
2019-02-05T14:57:00.988Z,9.30
2019-02-05T15:01:17.476Z,8.77
2019-02-05T15:03:22.613Z,9.03
2019-02-05T15:05:27.769Z,9.17
2019-02-05T15:07:32.866Z,8.93
2019-02-05T15:09:38.022Z,9.13
2019-02-05T15:11:43.387Z,9.53
2019-02-05T15:13:48.638Z,8.73
2019-02-05T15:15:53.844Z,9.27
2019-02-05T15:17:59.144Z,9.13
2019-02-05T15:20:06.518Z,9.93
2019-02-05T15:22:11.650Z,9.43
2019-02-05T15:24:17.068Z,8.90
2019-02-05T15:26:22.129Z,9.03
2019-02-05T15:28:27.276Z,8.97
2019-02-05T15:30:35.913Z,9.50
2019-02-05T15:32:51.585Z,9.30
2019-02-05T15:34:56.636Z,9.13
2019-02-05T15:37:01.811Z,9.80
2019-02-05T15:39:14.399Z,9.23
2019-02-05T15:41:19.578Z,9.17
2019-02-05T15:43:24.818Z,9.87
2019-02-05T15:45:30.037Z,9.87
2019-02-05T15:47:35.242Z,10.00
2019-02-05T15:49:40.390Z,9.17
2019-02-05T15:51:45.450Z,9.30
2019-02-05T15:53:50.704Z,9.97
2019-02-05T15:55:56.091Z,9.73
2019-02-05T15:58:01.168Z,10.03
2019-02-05T16:00:09.494Z,8.97
2019-02-05T16:02:14.878Z,8.80
2019-02-05T16:04:19.875Z,9.97
2019-02-05T16:06:24.979Z,8.87
2019-02-05T16:08:29.899Z,9.43
2019-02-05T16:10:34.989Z,9.77
2019-02-05T16:12:40.080Z,8.83
2019-02-05T16:14:45.163Z,8.70
2019-02-05T16:16:50.179Z,8.23
2019-02-05T16:18:55.173Z,8.30
2019-02-05T16:21:00.255Z,9.20
2019-02-05T16:23:05.431Z,8.50
2019-02-05T16:25:12.940Z,9.03
2019-02-05T16:27:18.083Z,8.83
2019-02-05T16:29:23.100Z,8.53
2019-02-05T16:31:28.306Z,8.50
2019-02-05T16:33:33.375Z,8.30
2019-02-05T16:35:38.762Z,7.70
2019-02-05T16:37:43.958Z,8.63
2019-02-05T16:39:48.951Z,8.07
2019-02-05T16:41:54.085Z,7.60
2019-02-05T16:43:59.194Z,7.40
2019-02-05T16:46:04.442Z,7.67
2019-02-05T16:48:09.718Z,8.20
2019-02-05T16:50:19.315Z,6.93
2019-02-05T16:52:24.628Z,8.00
2019-02-05T16:54:29.647Z,7.30
2019-02-05T16:56:34.818Z,7.53
2019-02-05T16:58:40.075Z,7.70
2019-02-05T17:00:45.476Z,7.33
2019-02-05T17:02:50.883Z,7.53
2019-02-05T17:04:55.877Z,8.03
2019-02-05T17:07:01.006Z,7.60
2019-02-05T17:09:15.608Z,6.93
2019-02-05T17:11:20.717Z,7.43
2019-02-05T17:13:25.895Z,7.40
2019-02-05T17:15:31.230Z,6.70
2019-02-05T17:17:36.476Z,6.33
2019-02-05T17:19:41.488Z,6.23
2019-02-05T17:21:46.742Z,7.00
2019-02-05T17:23:52.238Z,7.37
2019-02-05T17:25:57.270Z,6.57
2019-02-05T17:28:02.765Z,6.30
2019-02-05T17:30:12.928Z,6.50
2019-02-05T17:32:18.191Z,6.47
2019-02-05T17:34:23.317Z,6.50
2019-02-05T17:36:29.027Z,6.83
2019-02-05T17:38:34.207Z,5.90
2019-02-05T17:40:39.563Z,6.50
2019-02-05T17:42:45.007Z,5.97
2019-02-05T17:44:50.030Z,5.87
2019-02-05T17:46:56.917Z,5.83
2019-02-05T17:49:02.310Z,7.20
2019-02-05T17:51:07.410Z,7.40
2019-02-05T17:53:12.609Z,6.77
2019-02-05T17:55:18.231Z,6.73
2019-02-05T17:57:23.436Z,6.10
2019-02-05T17:59:28.892Z,6.73
2019-02-05T18:01:34.066Z,6.67
2019-02-05T18:03:39.517Z,6.67
2019-02-05T18:05:44.605Z,6.77
2019-02-05T18:07:50.152Z,7.87
2019-02-05T18:09:55.293Z,7.27
2019-02-05T18:12:00.320Z,7.00
2019-02-05T18:14:05.683Z,7.33
2019-02-05T18:16:20.981Z,6.93
2019-02-05T18:18:25.930Z,7.23
2019-02-05T18:20:31.169Z,7.20
2019-02-05T18:22:36.372Z,6.40
2019-02-05T18:24:41.535Z,7.00
2019-02-05T18:26:46.684Z,6.70
2019-02-05T18:28:51.830Z,7.50
2019-02-05T18:30:56.932Z,7.70
2019-02-05T18:33:05.447Z,7.70
2019-02-05T18:35:10.233Z,7.60
2019-02-05T18:37:15.440Z,7.27
2019-02-05T18:39:20.539Z,7.60
2019-02-05T18:41:25.634Z,6.80
2019-02-05T18:43:30.782Z,7.30
2019-02-05T18:45:35.949Z,6.07
2019-02-05T18:47:41.397Z,5.83
2019-02-05T18:49:46.460Z,5.90
2019-02-05T18:51:51.746Z,5.80
2019-02-05T18:53:56.800Z,5.80
2019-02-05T18:56:01.973Z,6.37
2019-02-05T18:58:09.619Z,5.90
2019-02-05T19:00:28.802Z,6.37
2019-02-05T19:02:34.060Z,6.27
2019-02-05T19:04:39.315Z,6.27
2019-02-05T19:06:44.454Z,5.60
2019-02-05T19:08:49.605Z,5.17
2019-02-05T19:10:54.675Z,6.20
2019-02-05T19:13:00.165Z,6.23
2019-02-05T19:15:06.965Z,6.60
2019-02-05T19:17:13.237Z,6.00
2019-02-05T19:19:18.278Z,6.40
2019-02-05T19:21:23.459Z,5.67
2019-02-05T19:23:28.565Z,6.47
2019-02-05T19:25:57.531Z,6.70
2019-02-05T19:28:02.916Z,5.90
2019-02-05T19:30:10.206Z,7.10
2019-02-05T19:32:17.929Z,6.37
2019-02-05T19:34:22.945Z,6.90
2019-02-05T19:36:28.122Z,6.23
2019-02-05T19:38:33.403Z,6.67
2019-02-05T19:40:39.043Z,6.10
2019-02-05T19:42:44.176Z,6.80
2019-02-05T19:45:00.010Z,6.10
2019-02-05T19:47:11.904Z,6.73
2019-02-05T19:49:45.326Z,7.10
2019-02-05T19:51:50.426Z,6.87
2019-02-05T19:53:55.923Z,6.10
2019-02-05T19:56:00.997Z,6.70
2019-02-05T19:58:06.977Z,6.20
2019-02-05T20:00:13.279Z,6.43
2019-02-05T20:02:18.445Z,5.93
2019-02-05T20:04:23.743Z,6.23
2019-02-05T20:06:29.094Z,6.20
2019-02-05T20:08:34.642Z,6.07
2019-02-05T20:10:39.766Z,5.67
2019-02-05T20:12:44.886Z,6.63
2019-02-05T20:14:49.924Z,6.70
2019-02-05T20:16:55.014Z,6.37
2019-02-05T20:19:00.311Z,6.90
2019-02-05T20:21:05.581Z,7.10
2019-02-05T20:23:10.836Z,6.87
2019-02-05T20:25:16.139Z,6.83
2019-02-05T20:27:21.223Z,6.93
2019-02-05T20:29:26.539Z,6.37
2019-02-05T20:31:31.678Z,6.80
2019-02-05T20:33:36.908Z,6.83
2019-02-05T20:35:41.980Z,6.27
2019-02-05T20:37:47.272Z,6.43
2019-02-05T20:39:52.319Z,6.40
2019-02-05T20:41:57.474Z,7.43
2019-02-05T20:44:02.570Z,7.17
2019-02-05T20:46:07.747Z,8.07
2019-02-05T20:48:12.991Z,8.13
2019-02-05T20:50:18.237Z,7.40
2019-02-05T20:52:23.384Z,7.30
2019-02-05T20:54:28.496Z,7.43
2019-02-05T20:56:33.591Z,6.90
2019-02-05T20:58:38.747Z,7.00
2019-02-05T21:00:43.899Z,7.20
2019-02-05T21:02:49.055Z,7.17
2019-02-05T21:04:54.211Z,7.10
2019-02-05T21:06:59.906Z,7.83
2019-02-05T21:09:17.392Z,7.70
2019-02-05T21:11:22.498Z,7.07
2019-02-05T21:13:27.505Z,6.77
2019-02-05T21:15:32.685Z,7.77
2019-02-05T21:17:37.838Z,7.50
2019-02-05T21:19:42.855Z,8.13
2019-02-05T21:21:48.011Z,7.27
2019-02-05T21:23:53.179Z,7.47
2019-02-05T21:25:58.306Z,7.67
2019-02-05T21:28:03.613Z,7.60
2019-02-05T21:30:12.535Z,7.47
2019-02-05T21:32:17.739Z,8.40
2019-02-05T21:34:22.741Z,8.03
2019-02-05T21:36:28.127Z,8.87
2019-02-05T21:38:33.293Z,7.57
2019-02-05T21:40:38.289Z,7.77
2019-02-05T21:42:43.734Z,7.67
2019-02-05T21:44:48.762Z,8.13
2019-02-05T21:46:53.838Z,8.50
2019-02-05T21:48:58.787Z,8.10
2019-02-05T21:51:03.840Z,8.30
2019-02-05T21:53:09.108Z,8.27
2019-02-05T21:55:15.406Z,8.67
2019-02-05T21:57:20.517Z,7.37
2019-02-05T22:03:53.383Z,7.87
2019-02-05T22:05:58.558Z,7.97
2019-02-05T22:08:03.769Z,8.80
2019-02-05T22:10:09.516Z,7.80
2019-02-05T22:12:14.894Z,8.03
2019-02-05T22:14:19.884Z,7.50
2019-02-05T22:16:25.045Z,7.97
2019-02-05T22:18:30.095Z,7.60
2019-02-05T22:20:35.233Z,7.83
2019-02-05T22:22:40.329Z,8.50
2019-02-05T22:24:45.715Z,8.50
2019-02-05T22:26:51.189Z,7.03
2019-02-05T22:28:56.349Z,7.63
2019-02-05T22:31:01.673Z,8.60
2019-02-05T22:33:07.362Z,8.20
2019-02-05T22:35:12.489Z,9.20
2019-02-05T22:37:17.783Z,9.70
2019-02-05T22:39:22.786Z,8.60
2019-02-05T22:41:27.912Z,7.90
2019-02-05T22:43:32.822Z,7.80
2019-02-05T22:45:41.012Z,7.80
2019-02-05T22:47:45.356Z,8.10
2019-02-05T22:49:50.553Z,8.27
2019-02-05T22:51:55.911Z,9.00
2019-02-05T22:54:00.971Z,8.23
2019-02-05T22:56:06.594Z,9.40
2019-02-05T22:58:11.844Z,8.70
2019-02-05T23:00:55.803Z,8.57
2019-02-05T23:03:00.935Z,7.83
2019-02-05T23:05:41.014Z,8.20
2019-02-05T23:07:46.239Z,7.57
2019-02-05T23:10:45.138Z,7.83
2019-02-05T23:12:58.300Z,7.63
2019-02-05T23:15:15.905Z,7.13
2019-02-05T23:17:21.048Z,7.13
2019-02-05T23:19:26.207Z,6.97
2019-02-05T23:21:31.361Z,7.60
2019-02-05T23:23:36.714Z,8.00
2019-02-05T23:25:41.887Z,7.93
2019-02-05T23:27:47.033Z,7.43
2019-02-05T23:29:52.094Z,7.43
2019-02-05T23:31:57.240Z,6.60
2019-02-05T23:34:02.243Z,7.53
2019-02-05T23:36:07.538Z,7.53
2019-02-05T23:38:12.607Z,6.90
2019-02-05T23:40:18.159Z,7.00
2019-02-05T23:42:23.242Z,7.40
2019-02-05T23:44:28.385Z,7.60
2019-02-05T23:46:33.828Z,7.20
2019-02-05T23:48:39.058Z,7.40
2019-02-05T23:50:44.137Z,7.23
2019-02-05T23:52:49.340Z,6.87
2019-02-05T23:54:54.390Z,6.50
2019-02-05T23:56:59.642Z,7.00
2019-02-05T23:59:04.956Z,6.67
